This is the latest recevied weather packets stored in our database for station/object YT6PT-8. If no packets are shown the sender has not sent any weather packets the latest 10 day(s).
| Time | Temp. | Humidity | Pressure | Rain* | Wind** | Luminosity | Snow |
|---|---|---|---|---|---|---|---|
| 1788009333 | 26.11° C | 59% | 1007.9 hPa | 0 mm | 0.45 m/s, 22° | - | - |
| 1788009039 | 26.11° C | 58% | 1007.9 hPa | 0 mm | 1.79 m/s, 68° | - | - |
| 1788008733 | 26.11° C | 58% | 1007.9 hPa | 0 mm | 1.79 m/s, 68° | - | - |
| 1788008439 | 26.67° C | 57% | 1008.1 hPa | 0 mm | 0.89 m/s, 45° | - | - |
| 1788008133 | 26.67° C | 57% | 1008.1 hPa | 0 mm | 0.89 m/s, 45° | - | - |
| 1788007833 | 27.22° C | 54% | 1008.1 hPa | 0 mm | 0.89 m/s, 45° | - | - |
| 1788007533 | 27.22° C | 54% | 1008.1 hPa | 0 mm | 0.89 m/s, 45° | - | - |
| 1788007234 | 27.78° C | 52% | 1008.1 hPa | 0 mm | 0 m/s | - | - |
| 1788006952 | 27.78° C | 52% | 1008.1 hPa | 0 mm | 0 m/s | - | - |
| 1788006649 | 27.78° C | 51% | 1008.2 hPa | 0 mm | 1.34 m/s, 22° | - | - |
| 1788006333 | 27.78° C | 51% | 1008.2 hPa | 0 mm | 1.34 m/s, 22° | - | - |
| 1788006032 | 27.78° C | 52% | 1008.5 hPa | 0 mm | 0.89 m/s, 112° | - | - |
| 1788005732 | 27.78° C | 52% | 1008.5 hPa | 0 mm | 0.89 m/s, 112° | - | - |
| 1788005440 | 27.78° C | 52% | 1008.5 hPa | 0 mm | 0.89 m/s, 90° | - | - |
| 1788005133 | 27.78° C | 52% | 1008.5 hPa | 0 mm | 0.89 m/s, 90° | - | - |
| 1788004834 | 28.33° C | 49% | 1008.5 hPa | 0 mm | 1.79 m/s, 338° | - | - |
| 1788004551 | 28.33° C | 49% | 1008.5 hPa | 0 mm | 1.79 m/s, 338° | - | - |
| 1788004233 | 28.89° C | 44% | 1008.4 hPa | 0 mm | 0.89 m/s, 22° | - | - |
| 1788003933 | 28.89° C | 44% | 1008.4 hPa | 0 mm | 0.89 m/s, 22° | - | - |
| 1788003633 | 30° C | 44% | 1008.4 hPa | 0 mm | 0 m/s | - | - |
| 1788003334 | 30° C | 44% | 1008.4 hPa | 0 mm | 0 m/s | - | - |
| 1788003032 | 30.56° C | 41% | 1008.7 hPa | 0 mm | 0.45 m/s, 112° | - | - |
| 1788002732 | 30.56° C | 41% | 1008.7 hPa | 0 mm | 0.45 m/s, 112° | - | - |
| 1788002433 | 30° C | 40% | 1008.6 hPa | 0 mm | 1.34 m/s, 338° | - | - |
| 1788002134 | 30° C | 40% | 1008.6 hPa | 0 mm | 1.34 m/s, 338° | - | - |
* Rain latest hour (hover to see other rain measurements)
** Current wind speed in m/s (hover to see current wind gust speed)